Experience challenging mountatin terain in the space-restiricted Sarajevo

The wealth of cultural and historical heritage, natural beauty and attractive places including our mountains, lakes, beautiful villages, our small towns with great soul, will determine the direction of our business policy and the need for our participation in the presentation of our beautiful country.

Sarajevo has shrugged off its years under siege to become one of Europe’s most likeable capitals, while the delightful city of Mostar is focused on an Old Bridge that, meticulously rebuilt after destruction during the war, must be the most photographed object in the Balkans.

Airport GND TWR APP Metar
LQBK LQBK 220830Z 20012KT 170V230 CAVOK 13/M01 Q1014 NOSIG
LQTZ LQTZ 220830Z VRB01KT CAVOK 03/03 Q1016
LQSA LQSA 220830Z VRB02KT CAVOK 02/01 Q1018 NOSIG
LQMO LQMO 220830Z VRB02KT CAVOK 07/01 Q1020

Approved controllers

Coming soon!